createdAt,value
2022-09-23T00:01:02.000Z,9.59
2022-09-23T00:03:30.352Z,9.56
2022-09-23T00:05:58.724Z,9.52
2022-09-23T00:08:25.948Z,9.49
2022-09-23T00:10:53.417Z,9.46
2022-09-23T00:13:20.619Z,9.43
2022-09-23T00:15:47.761Z,9.39
2022-09-23T00:18:16.342Z,9.32
2022-09-23T00:20:43.655Z,9.25
2022-09-23T00:23:11.269Z,9.20
2022-09-23T00:25:38.546Z,9.14
2022-09-23T00:28:05.643Z,9.04
2022-09-23T00:30:33.041Z,8.97
2022-09-23T00:33:00.334Z,8.81
2022-09-23T00:35:28.822Z,8.71
2022-09-23T00:37:56.205Z,8.62
2022-09-23T00:40:23.406Z,8.65
2022-09-23T00:42:52.143Z,8.69
2022-09-23T00:45:19.777Z,8.76
2022-09-23T00:47:51.088Z,8.78
2022-09-23T00:50:26.010Z,8.72
2022-09-23T00:52:56.866Z,8.72
2022-09-23T00:55:28.024Z,8.71
2022-09-23T00:57:57.881Z,8.70
2022-09-23T01:00:25.517Z,8.69
2022-09-23T01:02:52.778Z,8.76
2022-09-23T01:05:20.970Z,8.79
2022-09-23T01:07:49.364Z,8.80
2022-09-23T01:10:18.629Z,8.79
2022-09-23T01:13:08.425Z,8.80
2022-09-23T01:15:41.331Z,8.81
2022-09-23T01:18:15.999Z,8.77
2022-09-23T01:20:59.283Z,8.76
2022-09-23T01:23:50.323Z,8.71
2022-09-23T01:26:36.540Z,8.64
2022-09-23T01:29:26.271Z,8.58
2022-09-23T01:31:59.216Z,8.55
2022-09-23T01:34:34.357Z,8.53
2022-09-23T01:37:07.891Z,8.52
2022-09-23T01:39:37.725Z,8.51
2022-09-23T01:42:10.206Z,8.48
2022-09-23T01:44:43.695Z,8.46
2022-09-23T01:47:16.473Z,8.45
2022-09-23T01:49:48.392Z,8.45
2022-09-23T01:52:22.755Z,8.43
2022-09-23T01:54:57.056Z,8.38
2022-09-23T01:57:31.886Z,8.38
2022-09-23T02:00:04.442Z,8.40
2022-09-23T02:02:49.867Z,8.41
2022-09-23T02:05:21.317Z,8.42
2022-09-23T02:07:54.997Z,8.40
2022-09-23T02:10:25.878Z,8.37
2022-09-23T02:12:58.421Z,8.37
2022-09-23T02:15:32.818Z,8.32
2022-09-23T02:18:08.843Z,8.31
2022-09-23T02:20:39.862Z,8.31
2022-09-23T02:23:12.555Z,8.27
2022-09-23T02:25:45.354Z,8.25
2022-09-23T02:28:16.802Z,8.27
2022-09-23T02:30:52.025Z,8.28
2022-09-23T02:33:24.446Z,8.32
2022-09-23T02:35:56.040Z,8.32
2022-09-23T02:38:33.583Z,8.33
2022-09-23T02:41:07.529Z,8.35
2022-09-23T02:43:39.271Z,8.34
2022-09-23T02:46:07.508Z,8.32
2022-09-23T02:48:41.454Z,8.30
2022-09-23T02:51:10.169Z,8.27
2022-09-23T02:53:38.208Z,8.23
2022-09-23T02:56:14.740Z,8.18
2022-09-23T02:58:42.195Z,8.13
2022-09-23T03:01:19.055Z,8.12
2022-09-23T03:03:56.429Z,8.07
2022-09-23T03:06:29.640Z,8.02
2022-09-23T03:09:02.665Z,7.97
2022-09-23T03:11:32.442Z,7.96
2022-09-23T03:14:17.509Z,7.96
2022-09-23T03:16:50.677Z,7.98
2022-09-23T03:19:26.476Z,7.97
2022-09-23T03:22:03.437Z,7.96
2022-09-23T03:24:34.585Z,7.94
2022-09-23T03:27:04.418Z,7.97
2022-09-23T03:29:32.628Z,7.98
2022-09-23T03:32:00.271Z,7.98
2022-09-23T03:34:31.576Z,7.98
2022-09-23T03:37:03.577Z,7.96
2022-09-23T03:39:35.709Z,7.93
2022-09-23T03:42:07.965Z,7.92
2022-09-23T03:44:39.408Z,7.91
2022-09-23T03:47:06.890Z,7.92
2022-09-23T03:49:39.267Z,7.98
2022-09-23T03:52:06.633Z,8.00
2022-09-23T03:54:34.117Z,8.03
2022-09-23T03:57:02.077Z,8.07
2022-09-23T03:59:32.873Z,8.11
2022-09-23T04:02:00.824Z,8.15
2022-09-23T04:04:28.331Z,8.18
2022-09-23T04:06:56.924Z,8.18
2022-09-23T04:09:24.397Z,8.19
2022-09-23T04:11:52.226Z,8.22
2022-09-23T04:14:21.173Z,8.22
2022-09-23T04:16:49.019Z,8.23
2022-09-23T04:19:16.852Z,8.27
2022-09-23T04:21:45.175Z,8.31
2022-09-23T04:24:15.580Z,8.32
2022-09-23T04:26:43.400Z,8.18
2022-09-23T04:29:11.514Z,8.02
2022-09-23T04:31:39.096Z,7.98
2022-09-23T04:34:06.214Z,8.04
2022-09-23T04:36:33.704Z,8.13
2022-09-23T04:39:01.485Z,8.19
2022-09-23T04:41:30.049Z,8.25
2022-09-23T04:43:59.795Z,8.31
2022-09-23T04:46:27.113Z,8.35
2022-09-23T04:48:54.234Z,8.36
2022-09-23T04:51:23.329Z,8.40
2022-09-23T04:53:51.925Z,8.44
2022-09-23T04:56:20.754Z,8.42
2022-09-23T04:58:50.082Z,8.34
2022-09-23T05:01:19.304Z,8.34
2022-09-23T05:03:47.073Z,8.41
2022-09-23T05:06:14.991Z,8.53
2022-09-23T05:08:47.737Z,8.63
2022-09-23T05:11:15.181Z,8.71
2022-09-23T05:13:42.363Z,8.84
2022-09-23T05:16:12.538Z,8.91
2022-09-23T05:18:43.864Z,8.91
2022-09-23T05:21:12.272Z,8.96
2022-09-23T05:23:40.644Z,8.98
2022-09-23T05:26:10.113Z,9.01
2022-09-23T05:28:39.404Z,9.11
2022-09-23T05:31:08.925Z,9.21
2022-09-23T05:33:37.718Z,9.24
2022-09-23T05:36:05.705Z,9.46
2022-09-23T05:38:33.221Z,9.62
2022-09-23T05:41:02.642Z,9.65
2022-09-23T05:43:30.048Z,9.69
2022-09-23T05:46:07.181Z,9.93
2022-09-23T05:48:37.554Z,10.31
2022-09-23T05:51:07.577Z,10.42
2022-09-23T05:53:35.170Z,10.38
2022-09-23T05:58:30.134Z,10.73
2022-09-23T06:00:57.385Z,11.12
2022-09-23T06:03:25.658Z,11.68
2022-09-23T06:05:54.924Z,12.13
2022-09-23T06:08:22.754Z,12.50
2022-09-23T06:10:54.421Z,12.95
2022-09-23T06:13:21.758Z,13.49
2022-09-23T06:15:48.960Z,13.96
2022-09-23T06:18:17.267Z,14.27
2022-09-23T06:20:44.455Z,14.55
2022-09-23T06:23:12.983Z,14.76
2022-09-23T06:25:40.126Z,15.08
2022-09-23T06:28:12.198Z,15.32
2022-09-23T06:30:39.968Z,15.61
2022-09-23T06:33:07.217Z,15.87
2022-09-23T06:35:34.437Z,16.17
2022-09-23T06:38:03.817Z,16.58
2022-09-23T06:40:32.605Z,16.96
2022-09-23T06:43:00.874Z,17.05
2022-09-23T06:45:28.818Z,17.39
2022-09-23T06:47:57.847Z,17.69
2022-09-23T06:50:26.254Z,17.85
2022-09-23T06:52:56.023Z,17.96
2022-09-23T06:55:24.539Z,18.22
2022-09-23T06:57:53.699Z,18.40
2022-09-23T07:00:21.302Z,18.50
2022-09-23T07:02:49.034Z,18.83
2022-09-23T07:05:17.342Z,19.16
2022-09-23T07:07:45.274Z,19.40
2022-09-23T07:10:12.872Z,19.51
2022-09-23T07:12:39.992Z,19.56
2022-09-23T07:15:09.923Z,19.57
2022-09-23T07:17:37.434Z,19.74
2022-09-23T07:20:05.181Z,19.76
2022-09-23T07:22:32.359Z,19.63
2022-09-23T07:24:59.462Z,19.45
2022-09-23T07:27:27.628Z,19.28
2022-09-23T07:29:55.087Z,19.35
2022-09-23T07:32:23.785Z,19.48
2022-09-23T07:34:51.788Z,19.72
2022-09-23T07:37:19.024Z,20.12
2022-09-23T07:39:46.195Z,20.37
2022-09-23T07:42:14.312Z,20.68
2022-09-23T07:44:47.859Z,20.90
2022-09-23T07:47:15.738Z,21.06
2022-09-23T07:49:44.281Z,21.00
2022-09-23T07:52:11.424Z,21.09
2022-09-23T07:54:38.687Z,21.02
2022-09-23T07:57:05.953Z,20.98
2022-09-23T07:59:33.242Z,20.93
2022-09-23T08:02:00.499Z,20.75
2022-09-23T08:04:30.352Z,20.73
2022-09-23T08:07:01.392Z,20.92
2022-09-23T08:09:32.833Z,21.15
2022-09-23T08:12:00.462Z,21.42
2022-09-23T08:14:27.746Z,21.60
2022-09-23T08:16:54.888Z,21.83
2022-09-23T08:19:21.940Z,22.41
2022-09-23T08:21:52.186Z,22.93
2022-09-23T08:24:24.276Z,23.35
2022-09-23T08:26:53.394Z,23.67
2022-09-23T08:29:22.185Z,23.66
2022-09-23T08:31:50.213Z,23.24
2022-09-23T08:34:18.743Z,22.73
2022-09-23T08:36:46.104Z,22.06
2022-09-23T08:39:17.737Z,21.68
2022-09-23T08:41:59.206Z,21.37
2022-09-23T08:44:33.096Z,21.11
2022-09-23T08:47:12.134Z,20.89
2022-09-23T08:49:42.026Z,21.08
2022-09-23T08:52:18.131Z,21.31
2022-09-23T08:54:45.328Z,21.33
2022-09-23T08:57:27.429Z,21.86
2022-09-23T08:59:54.834Z,22.30
2022-09-23T09:02:23.252Z,22.64
2022-09-23T09:04:54.541Z,22.94
2022-09-23T09:07:36.290Z,23.03
2022-09-23T09:10:09.933Z,22.88
2022-09-23T09:12:42.186Z,23.04
2022-09-23T09:15:13.202Z,22.87
2022-09-23T09:17:51.164Z,22.47
2022-09-23T09:20:27.448Z,22.56
2022-09-23T09:22:57.923Z,22.58
2022-09-23T09:25:36.382Z,22.45
2022-09-23T09:28:14.757Z,22.71
2022-09-23T09:30:46.383Z,23.10
2022-09-23T09:33:18.935Z,23.52
2022-09-23T09:36:01.242Z,23.82
2022-09-23T09:38:28.717Z,24.07
2022-09-23T09:41:08.989Z,24.37
2022-09-23T09:43:43.438Z,24.34
2022-09-23T09:46:29.739Z,24.00
2022-09-23T09:49:00.954Z,23.49
2022-09-23T09:51:29.569Z,23.18
2022-09-23T09:54:16.488Z,23.59
2022-09-23T09:56:44.990Z,23.91
2022-09-23T09:59:21.084Z,23.80
2022-09-23T10:01:48.283Z,23.88
2022-09-23T10:04:22.754Z,24.08
2022-09-23T10:07:06.252Z,23.77
2022-09-23T10:09:35.954Z,23.41
2022-09-23T10:12:15.432Z,23.01
2022-09-23T10:14:44.445Z,22.73
2022-09-23T10:17:17.951Z,22.51
2022-09-23T10:19:48.209Z,22.29
2022-09-23T10:22:23.595Z,22.15
2022-09-23T10:24:53.810Z,22.59
2022-09-23T10:27:28.347Z,23.20
2022-09-23T10:29:58.364Z,23.54
2022-09-23T10:32:28.955Z,23.24
2022-09-23T10:34:58.814Z,22.81
2022-09-23T10:37:38.625Z,22.59
2022-09-23T10:40:37.270Z,23.05
2022-09-23T10:43:47.003Z,23.36
2022-09-23T10:46:38.327Z,23.06
2022-09-23T10:49:43.783Z,23.54
2022-09-23T10:52:31.939Z,24.04
2022-09-23T10:55:11.057Z,23.93
2022-09-23T10:57:51.059Z,23.46
2022-09-23T11:00:23.383Z,23.64
2022-09-23T11:03:15.461Z,24.12
2022-09-23T11:05:49.367Z,24.12
2022-09-23T11:08:39.998Z,24.23
2022-09-23T11:11:22.017Z,24.20
2022-09-23T11:14:04.625Z,23.97
2022-09-23T11:16:45.117Z,23.94
2022-09-23T11:19:32.426Z,24.08
2022-09-23T11:22:16.823Z,24.49
2022-09-23T11:25:00.595Z,24.17
2022-09-23T11:27:42.129Z,23.76
2022-09-23T11:30:11.432Z,23.49
2022-09-23T11:33:06.649Z,23.90
2022-09-23T11:35:41.702Z,24.39
2022-09-23T11:38:12.156Z,24.74
2022-09-23T11:40:45.513Z,24.98
2022-09-23T11:43:21.741Z,25.30
2022-09-23T11:45:58.631Z,25.57
2022-09-23T11:48:31.859Z,25.75
2022-09-23T11:51:05.074Z,25.63
2022-09-23T11:53:40.787Z,25.70
2022-09-23T11:56:23.690Z,25.54
2022-09-23T11:59:02.058Z,25.02
2022-09-23T12:01:37.505Z,24.40
2022-09-23T12:04:18.846Z,24.20
2022-09-23T12:06:56.989Z,23.85
2022-09-23T12:09:54.020Z,23.51
2022-09-23T12:12:25.042Z,23.11
2022-09-23T12:15:01.607Z,22.80
2022-09-23T12:18:06.145Z,22.45
2022-09-23T12:20:48.815Z,22.20
2022-09-23T12:23:37.145Z,22.06
2022-09-23T12:26:08.343Z,21.83
2022-09-23T12:28:37.846Z,21.51
2022-09-23T12:31:10.457Z,21.04
2022-09-23T12:33:38.859Z,20.72
2022-09-23T12:36:08.016Z,20.41
2022-09-23T12:38:38.421Z,20.19
2022-09-23T12:41:22.717Z,20.00
2022-09-23T12:43:56.137Z,19.84
2022-09-23T12:46:27.661Z,19.61
2022-09-23T12:49:03.009Z,19.50
2022-09-23T12:51:30.964Z,19.47
2022-09-23T12:54:24.601Z,19.56
2022-09-23T12:57:03.223Z,19.63
2022-09-23T12:59:55.008Z,19.72
2022-09-23T13:02:41.352Z,19.88
2022-09-23T13:05:37.374Z,20.16
2022-09-23T13:08:08.985Z,20.40
2022-09-23T13:10:44.146Z,20.89
2022-09-23T13:13:19.293Z,21.33
2022-09-23T13:15:46.474Z,21.67
2022-09-23T13:18:54.894Z,21.93
2022-09-23T13:22:04.003Z,22.11
2022-09-23T13:24:41.201Z,22.18
2022-09-23T13:27:19.888Z,22.32
2022-09-23T13:29:53.711Z,22.46
2022-09-23T13:32:25.822Z,22.49
2022-09-23T13:34:58.266Z,22.28
2022-09-23T13:37:31.385Z,21.97
2022-09-23T13:40:09.943Z,21.83
2022-09-23T13:42:41.974Z,22.00
2022-09-23T13:45:15.473Z,22.12
2022-09-23T13:47:44.061Z,22.28
2022-09-23T13:50:17.596Z,22.40
2022-09-23T13:52:45.261Z,22.46
2022-09-23T13:55:37.416Z,22.51
2022-09-23T13:58:14.883Z,22.37
2022-09-23T14:00:42.083Z,22.38
2022-09-23T14:03:31.231Z,22.35
2022-09-23T14:06:05.892Z,22.34
2022-09-23T14:08:33.324Z,22.36
2022-09-23T14:11:00.857Z,22.36
2022-09-23T14:13:33.934Z,22.26
2022-09-23T14:16:04.210Z,22.11
2022-09-23T14:18:35.706Z,22.02
2022-09-23T14:21:03.753Z,21.94
2022-09-23T14:23:31.022Z,21.90
2022-09-23T14:25:59.027Z,21.88
2022-09-23T14:28:27.596Z,21.86
2022-09-23T14:30:58.454Z,21.87
2022-09-23T14:33:30.482Z,21.81
2022-09-23T14:36:03.795Z,21.77
2022-09-23T14:38:49.625Z,21.71
2022-09-23T14:41:21.965Z,21.64
2022-09-23T14:43:52.997Z,21.45
2022-09-23T14:46:23.435Z,21.33
2022-09-23T14:49:15.641Z,21.17
2022-09-23T14:51:47.933Z,21.05
2022-09-23T14:54:33.649Z,20.78
2022-09-23T14:57:01.891Z,20.52
2022-09-23T14:59:33.678Z,20.33
2022-09-23T15:02:02.632Z,20.18
2022-09-23T15:04:32.430Z,20.04
2022-09-23T15:07:04.197Z,20.00
2022-09-23T15:09:33.618Z,19.95
2022-09-23T15:12:02.570Z,19.92
2022-09-23T15:14:39.401Z,19.86
2022-09-23T15:17:17.330Z,19.73
2022-09-23T15:19:46.528Z,19.60
2022-09-23T15:22:16.618Z,19.49
2022-09-23T15:24:45.145Z,19.36
2022-09-23T15:27:28.728Z,19.23
2022-09-23T15:30:01.144Z,19.10
2022-09-23T15:32:31.544Z,18.99
2022-09-23T15:34:58.711Z,18.86
2022-09-23T15:37:25.845Z,18.78
2022-09-23T15:39:53.121Z,18.69
2022-09-23T15:42:20.254Z,18.58
2022-09-23T15:44:49.038Z,18.41
2022-09-23T15:47:21.502Z,18.29
2022-09-23T15:49:49.969Z,18.20
2022-09-23T15:52:17.655Z,18.11
2022-09-23T15:54:44.860Z,18.01
2022-09-23T15:57:12.007Z,17.93
2022-09-23T15:59:39.069Z,17.85
2022-09-23T16:02:18.122Z,17.75
2022-09-23T16:04:52.414Z,17.65
2022-09-23T16:07:21.316Z,17.54
2022-09-23T16:09:48.492Z,17.45
2022-09-23T16:12:15.989Z,17.33
2022-09-23T16:14:43.145Z,17.22
2022-09-23T16:17:13.598Z,17.12
2022-09-23T16:19:40.671Z,17.02
2022-09-23T16:22:08.020Z,16.90
2022-09-23T16:24:36.576Z,16.80
2022-09-23T16:27:07.801Z,16.69
2022-09-23T16:29:35.102Z,16.56
2022-09-23T16:32:03.104Z,16.47
2022-09-23T16:34:30.286Z,16.36
2022-09-23T16:36:57.504Z,16.21
2022-09-23T16:39:24.602Z,16.09
2022-09-23T16:41:53.062Z,16.01
2022-09-23T16:44:20.604Z,15.92
2022-09-23T16:46:47.908Z,15.84
2022-09-23T16:49:15.019Z,15.78
2022-09-23T16:51:42.361Z,15.73
2022-09-23T16:54:11.442Z,15.71
2022-09-23T16:56:45.322Z,15.71
2022-09-23T16:59:14.277Z,15.73
2022-09-23T17:02:00.435Z,15.74
2022-09-23T17:04:27.874Z,15.69
2022-09-23T17:06:56.060Z,15.66
2022-09-23T17:09:25.675Z,15.60
2022-09-23T17:11:58.731Z,15.52
2022-09-23T17:14:29.631Z,15.47
2022-09-23T17:16:58.656Z,15.43
2022-09-23T17:19:25.835Z,15.36
2022-09-23T17:21:53.477Z,15.29
2022-09-23T17:24:20.849Z,15.23
2022-09-23T17:26:52.649Z,15.19
2022-09-23T17:29:20.286Z,15.14
2022-09-23T17:31:48.958Z,15.07
2022-09-23T17:34:18.760Z,14.98
2022-09-23T17:36:45.942Z,14.92
2022-09-23T17:39:13.955Z,14.87
2022-09-23T17:41:41.073Z,14.81
2022-09-23T17:44:11.041Z,14.73
2022-09-23T17:46:38.133Z,14.66
2022-09-23T17:49:06.791Z,14.58
2022-09-23T17:51:34.042Z,14.47
2022-09-23T17:54:01.170Z,14.41
2022-09-23T17:56:31.098Z,14.34
2022-09-23T17:59:00.724Z,14.22
2022-09-23T18:01:28.395Z,14.15
2022-09-23T18:03:57.581Z,14.05
2022-09-23T18:06:27.722Z,13.96
2022-09-23T18:08:56.125Z,13.89
2022-09-23T18:11:24.706Z,13.84
2022-09-23T18:13:53.674Z,13.76
2022-09-23T18:16:22.989Z,13.70
2022-09-23T18:18:51.462Z,13.66
2022-09-23T18:21:19.794Z,13.53
2022-09-23T18:23:48.650Z,13.44
2022-09-23T18:26:16.792Z,13.24
2022-09-23T18:28:44.476Z,13.10
2022-09-23T18:31:12.269Z,13.05
2022-09-23T18:33:39.477Z,12.94
2022-09-23T18:36:07.609Z,12.91
2022-09-23T18:38:34.993Z,12.90
2022-09-23T18:41:03.654Z,12.88
2022-09-23T18:43:37.519Z,12.82
2022-09-23T18:46:11.359Z,12.78
2022-09-23T18:48:57.481Z,12.74
2022-09-23T18:51:29.245Z,12.65
2022-09-23T18:54:00.044Z,12.62
2022-09-23T18:56:31.086Z,12.55
2022-09-23T18:58:58.464Z,12.48
2022-09-23T19:01:26.095Z,12.44
2022-09-23T19:04:07.509Z,12.40
2022-09-23T19:06:35.185Z,12.40
2022-09-23T19:09:03.229Z,12.39
2022-09-23T19:11:32.287Z,12.33
2022-09-23T19:14:03.293Z,12.26
2022-09-23T19:16:33.681Z,12.23
2022-09-23T19:19:01.798Z,12.19
2022-09-23T19:21:29.986Z,12.11
2022-09-23T19:24:03.476Z,12.09
2022-09-23T19:26:34.258Z,12.07
2022-09-23T19:29:02.960Z,12.04
2022-09-23T19:31:33.261Z,12.01
2022-09-23T19:34:02.385Z,11.99
2022-09-23T19:36:31.037Z,11.99
2022-09-23T19:38:59.530Z,11.97
2022-09-23T19:41:31.858Z,11.95
2022-09-23T19:44:04.218Z,11.90
2022-09-23T19:46:32.519Z,11.89
2022-09-23T19:49:00.647Z,11.81
2022-09-23T19:51:28.348Z,11.74
2022-09-23T19:53:55.483Z,11.75
2022-09-23T19:56:22.627Z,11.70
2022-09-23T19:58:55.632Z,11.66
2022-09-23T20:01:25.628Z,11.62
2022-09-23T20:03:53.458Z,11.62
2022-09-23T20:06:21.043Z,11.61
2022-09-23T20:08:48.743Z,11.57
2022-09-23T20:11:18.243Z,11.52
2022-09-23T20:13:49.366Z,11.51
2022-09-23T20:16:18.768Z,11.49
2022-09-23T20:18:51.877Z,11.46
2022-09-23T20:21:19.027Z,11.42
2022-09-23T20:23:46.141Z,11.40
2022-09-23T20:26:31.769Z,11.38
2022-09-23T20:29:02.331Z,11.34
2022-09-23T20:31:29.757Z,11.31
2022-09-23T20:33:58.917Z,11.25
2022-09-23T20:36:26.699Z,11.26
2022-09-23T20:38:54.438Z,11.25
2022-09-23T20:41:21.662Z,11.24
2022-09-23T20:43:53.026Z,11.23
2022-09-23T20:46:22.938Z,11.17
2022-09-23T20:48:50.822Z,11.16
2022-09-23T20:51:19.346Z,11.13
2022-09-23T20:53:49.154Z,11.07
2022-09-23T20:56:16.941Z,11.02
2022-09-23T20:58:44.591Z,10.94
2022-09-23T21:01:11.896Z,10.89
2022-09-23T21:03:40.586Z,10.86
2022-09-23T21:06:09.126Z,10.84
2022-09-23T21:08:37.988Z,10.81
2022-09-23T21:11:08.000Z,10.78
2022-09-23T21:13:35.366Z,10.74
2022-09-23T21:16:03.268Z,10.73
2022-09-23T21:18:30.881Z,10.71
2022-09-23T21:20:59.513Z,10.69
2022-09-23T21:23:27.483Z,10.70
2022-09-23T21:26:01.514Z,10.68
2022-09-23T21:28:32.185Z,10.69
2022-09-23T21:31:00.024Z,10.72
2022-09-23T21:33:27.304Z,10.72
2022-09-23T21:35:55.625Z,10.71
2022-09-23T21:38:22.918Z,10.70
2022-09-23T21:40:56.171Z,10.67
2022-09-23T21:43:25.573Z,10.64
2022-09-23T21:45:58.933Z,10.61
2022-09-23T21:48:28.465Z,10.58
2022-09-23T21:51:00.008Z,10.55
2022-09-23T21:53:31.704Z,10.48
2022-09-23T21:56:03.640Z,10.42
2022-09-23T21:58:32.937Z,10.37
2022-09-23T22:01:01.253Z,10.28
2022-09-23T22:03:28.524Z,10.21
2022-09-23T22:06:03.231Z,10.17
2022-09-23T22:08:34.821Z,10.13
2022-09-23T22:11:02.899Z,10.08
2022-09-23T22:13:29.994Z,10.03
2022-09-23T22:16:03.258Z,10.00
2022-09-23T22:18:30.434Z,9.97
2022-09-23T22:20:58.597Z,9.95
2022-09-23T22:23:26.060Z,9.92
2022-09-23T22:26:03.009Z,9.89
2022-09-23T22:28:51.043Z,9.87
2022-09-23T22:31:38.100Z,9.87
2022-09-23T22:34:05.421Z,9.86
2022-09-23T22:36:32.490Z,9.85
2022-09-23T22:39:00.655Z,9.85
2022-09-23T22:41:27.732Z,9.86
2022-09-23T22:43:55.688Z,9.84
2022-09-23T22:46:25.282Z,9.83
2022-09-23T22:48:53.470Z,9.80
2022-09-23T22:51:22.283Z,9.77
2022-09-23T22:53:49.545Z,9.73
2022-09-23T22:56:16.690Z,9.68
2022-09-23T22:58:43.954Z,9.64
2022-09-23T23:01:11.903Z,9.63
2022-09-23T23:03:40.551Z,9.62
2022-09-23T23:06:09.436Z,9.60
2022-09-23T23:08:37.270Z,9.58
2022-09-23T23:11:07.271Z,9.55
2022-09-23T23:13:34.466Z,9.51
2022-09-23T23:16:04.986Z,9.49
2022-09-23T23:18:32.966Z,9.49
2022-09-23T23:21:10.049Z,9.46
2022-09-23T23:23:38.422Z,9.46
2022-09-23T23:26:10.795Z,9.44
2022-09-23T23:28:38.766Z,9.43
2022-09-23T23:31:07.131Z,9.43
2022-09-23T23:33:34.670Z,9.42
2022-09-23T23:36:02.461Z,9.39
2022-09-23T23:38:31.057Z,9.35
2022-09-23T23:41:02.140Z,9.36
2022-09-23T23:43:29.317Z,9.32
2022-09-23T23:45:57.202Z,9.34
2022-09-23T23:48:24.288Z,9.33
2022-09-23T23:50:54.768Z,9.30
2022-09-23T23:53:22.089Z,9.25
2022-09-23T23:55:50.745Z,9.21
2022-09-23T23:58:18.498Z,9.17
